SAS1674 EDDB-EKCH
Flight info
| Callsign | SAS1674 |
|---|---|
| Flight time | 0h 45m |
| Altitude | 30000 |
| Route | GERGA4N/24L GERGA M725 RENKI Y89 USEDU DCT BINZE Z14 BANKU DCT KOSEB T298 MONAK |
| Aircraft | A319/M-SDE3FGHIRWY/LB1 |
Departure
| Time | 2026-05-04 18:03 |
|---|---|
| Airport | Berlin Brandenburg Airport (EDDB) |
Arrival
| Time | 2026-05-04 18:48 |
|---|---|
| Airport | Copenhagen Kastrup Airport (EKCH) |
| Time | Latitude | Longitude | Altitude | Speed | Heading |
|---|---|---|---|---|---|
| 2026-05-04 17:26 | 52.36388 | 13.50597 | 155 ft | 0 kts | 69° |
| 2026-05-04 17:54 | 52.36385 | 13.50582 | 154 ft | 4 kts | 69° |
| 2026-05-04 17:54 | 52.36375 | 13.50541 | 154 ft | 4 kts | 70° |
| 2026-05-04 17:54 | 52.36368 | 13.50499 | 154 ft | 4 kts | 82° |
| 2026-05-04 17:55 | 52.36368 | 13.50457 | 153 ft | 4 kts | 123° |
| 2026-05-04 17:55 | 52.36379 | 13.50441 | 153 ft | 1 kts | 159° |
| 2026-05-04 17:55 | 52.36381 | 13.50440 | 153 ft | 0 kts | 159° |
| 2026-05-04 17:57 | 52.36379 | 13.50441 | 153 ft | 1 kts | 159° |
| 2026-05-04 17:57 | 52.36362 | 13.50452 | 153 ft | 4 kts | 159° |
| 2026-05-04 17:58 | 52.36329 | 13.50473 | 153 ft | 6 kts | 158° |
| 2026-05-04 17:58 | 52.36281 | 13.50505 | 153 ft | 9 kts | 158° |
| 2026-05-04 17:58 | 52.36216 | 13.50545 | 153 ft | 11 kts | 160° |
| 2026-05-04 17:58 | 52.36134 | 13.50597 | 153 ft | 14 kts | 158° |
| 2026-05-04 17:59 | 52.36045 | 13.50653 | 153 ft | 11 kts | 159° |
| 2026-05-04 17:59 | 52.35964 | 13.50704 | 153 ft | 13 kts | 159° |
| 2026-05-04 17:59 | 52.35827 | 13.50827 | 152 ft | 13 kts | 104° |
| 2026-05-04 18:00 | 52.35859 | 13.50984 | 152 ft | 16 kts | 69° |
| 2026-05-04 18:00 | 52.35903 | 13.51171 | 152 ft | 19 kts | 69° |
| 2026-05-04 18:00 | 52.35955 | 13.51387 | 152 ft | 21 kts | 68° |
| 2026-05-04 18:00 | 52.36005 | 13.51597 | 152 ft | 20 kts | 68° |
| 2026-05-04 18:01 | 52.36057 | 13.51815 | 152 ft | 19 kts | 72° |
| 2026-05-04 18:01 | 52.36104 | 13.52018 | 152 ft | 15 kts | 68° |
| 2026-05-04 18:01 | 52.36067 | 13.52139 | 151 ft | 15 kts | 158° |
| 2026-05-04 18:02 | 52.35864 | 13.52259 | 158 ft | 15 kts | 173° |
| 2026-05-04 18:02 | 52.35808 | 13.52172 | 159 ft | 13 kts | 249° |
| 2026-05-04 18:02 | 52.35741 | 13.51889 | 160 ft | 53 kts | 249° |
| 2026-05-04 18:02 | 52.35526 | 13.50986 | 160 ft | 115 kts | 249° |
| 2026-05-04 18:03 | 52.35167 | 13.49476 | 219 ft | 163 kts | 250° |
| 2026-05-04 18:03 | 52.34752 | 13.47776 | 954 ft | 160 kts | 250° |
| 2026-05-04 18:03 | 52.34341 | 13.46072 | 1685 ft | 163 kts | 250° |
| 2026-05-04 18:03 | 52.33777 | 13.44429 | 2324 ft | 174 kts | 234° |
| 2026-05-04 18:04 | 52.32924 | 13.42865 | 2765 ft | 196 kts | 229° |
| 2026-05-04 18:04 | 52.31948 | 13.41097 | 3266 ft | 221 kts | 229° |
| 2026-05-04 18:04 | 52.29825 | 13.37225 | 5268 ft | 232 kts | 229° |
| 2026-05-04 18:05 | 52.28744 | 13.35252 | 6371 ft | 234 kts | 229° |
| 2026-05-04 18:05 | 52.27658 | 13.33263 | 7431 ft | 236 kts | 229° |
| 2026-05-04 18:05 | 52.26552 | 13.31109 | 8059 ft | 260 kts | 240° |
| 2026-05-04 18:05 | 52.26004 | 13.28247 | 8887 ft | 271 kts | 265° |
| 2026-05-04 18:06 | 52.27363 | 13.22521 | 10612 ft | 297 kts | 311° |
| 2026-05-04 18:06 | 52.28916 | 13.20102 | 11170 ft | 315 kts | 315° |
| 2026-05-04 18:06 | 52.30549 | 13.17663 | 11986 ft | 321 kts | 315° |
| 2026-05-04 18:07 | 52.32217 | 13.15185 | 12866 ft | 326 kts | 315° |
| 2026-05-04 18:07 | 52.33906 | 13.12677 | 13738 ft | 331 kts | 315° |
| 2026-05-04 18:07 | 52.35040 | 13.10996 | 14249 ft | 334 kts | 315° |
| 2026-05-04 18:07 | 52.37371 | 13.07558 | 15292 ft | 339 kts | 315° |
| 2026-05-04 18:08 | 52.38541 | 13.05839 | 15813 ft | 342 kts | 315° |
| 2026-05-04 18:08 | 52.40323 | 13.03233 | 16585 ft | 346 kts | 315° |
| 2026-05-04 18:08 | 52.42135 | 13.00596 | 17352 ft | 350 kts | 315° |
| 2026-05-04 18:08 | 52.43969 | 12.97937 | 18122 ft | 354 kts | 315° |
| 2026-05-04 18:09 | 52.47712 | 12.92552 | 19490 ft | 361 kts | 315° |
| 2026-05-04 18:09 | 52.51541 | 12.87088 | 20879 ft | 368 kts | 315° |
| 2026-05-04 18:10 | 52.53541 | 12.84427 | 21544 ft | 375 kts | 323° |
| 2026-05-04 18:10 | 52.55960 | 12.82677 | 22186 ft | 388 kts | 342° |
| 2026-05-04 18:10 | 52.58656 | 12.81987 | 22843 ft | 394 kts | 348° |
| 2026-05-04 18:10 | 52.61394 | 12.81428 | 23481 ft | 398 kts | 348° |
| 2026-05-04 18:11 | 52.64155 | 12.80881 | 24047 ft | 402 kts | 348° |
| 2026-05-04 18:11 | 52.66938 | 12.80334 | 24595 ft | 405 kts | 348° |
| 2026-05-04 18:11 | 52.69748 | 12.79781 | 25128 ft | 408 kts | 348° |
| 2026-05-04 18:11 | 52.72574 | 12.79214 | 25662 ft | 411 kts | 347° |
| 2026-05-04 18:12 | 52.75429 | 12.78629 | 26168 ft | 414 kts | 347° |
| 2026-05-04 18:12 | 52.78267 | 12.78036 | 26689 ft | 417 kts | 347° |
| 2026-05-04 18:12 | 52.81185 | 12.77420 | 27205 ft | 420 kts | 347° |
| 2026-05-04 18:12 | 52.84069 | 12.76821 | 27712 ft | 423 kts | 347° |
| 2026-05-04 18:13 | 52.86997 | 12.76221 | 28221 ft | 426 kts | 347° |
| 2026-05-04 18:13 | 52.89950 | 12.75621 | 28730 ft | 429 kts | 347° |
| 2026-05-04 18:13 | 52.95920 | 12.74401 | 29740 ft | 435 kts | 346° |
| 2026-05-04 18:14 | 52.98933 | 12.73780 | 29942 ft | 435 kts | 346° |
| 2026-05-04 18:14 | 53.01889 | 12.73178 | 29964 ft | 420 kts | 346° |
| 2026-05-04 18:14 | 53.04742 | 12.72601 | 29970 ft | 405 kts | 346° |
| 2026-05-04 18:15 | 53.10165 | 12.71492 | 29961 ft | 385 kts | 345° |
| 2026-05-04 18:15 | 53.15455 | 12.70378 | 29958 ft | 381 kts | 345° |
| 2026-05-04 18:16 | 53.20712 | 12.69258 | 29966 ft | 380 kts | 345° |
| 2026-05-04 18:16 | 53.25966 | 12.68150 | 29968 ft | 380 kts | 345° |
| 2026-05-04 18:17 | 53.33838 | 12.66502 | 29970 ft | 380 kts | 344° |
| 2026-05-04 18:18 | 53.41700 | 12.64839 | 29965 ft | 379 kts | 344° |
| 2026-05-04 18:18 | 53.46937 | 12.63734 | 29965 ft | 379 kts | 344° |
| 2026-05-04 18:19 | 53.54776 | 12.62081 | 29964 ft | 379 kts | 344° |
| 2026-05-04 18:19 | 53.60005 | 12.60968 | 29965 ft | 379 kts | 343° |
| 2026-05-04 18:20 | 53.65234 | 12.59851 | 29967 ft | 378 kts | 343° |
| 2026-05-04 18:20 | 53.70458 | 12.58735 | 29972 ft | 378 kts | 343° |
| 2026-05-04 18:21 | 53.75690 | 12.57618 | 29967 ft | 378 kts | 343° |
| 2026-05-04 18:21 | 53.80872 | 12.56507 | 29972 ft | 378 kts | 343° |
| 2026-05-04 18:22 | 53.86086 | 12.55393 | 29974 ft | 378 kts | 343° |
| 2026-05-04 18:22 | 53.91328 | 12.54270 | 29974 ft | 377 kts | 343° |
| 2026-05-04 18:23 | 53.93923 | 12.53698 | 29737 ft | 387 kts | 343° |
| 2026-05-04 18:23 | 53.96603 | 12.53101 | 29166 ft | 390 kts | 343° |
| 2026-05-04 18:23 | 53.99301 | 12.52512 | 28619 ft | 391 kts | 344° |
| 2026-05-04 18:23 | 54.02000 | 12.51929 | 28081 ft | 391 kts | 344° |
| 2026-05-04 18:24 | 54.04703 | 12.51345 | 27548 ft | 391 kts | 344° |
| 2026-05-04 18:24 | 54.07411 | 12.50756 | 27025 ft | 391 kts | 344° |
| 2026-05-04 18:24 | 54.10109 | 12.50171 | 26514 ft | 390 kts | 345° |
| 2026-05-04 18:24 | 54.12799 | 12.49587 | 26009 ft | 389 kts | 345° |
| 2026-05-04 18:25 | 54.15481 | 12.49003 | 25512 ft | 388 kts | 345° |
| 2026-05-04 18:25 | 54.18158 | 12.48417 | 25025 ft | 387 kts | 345° |
| 2026-05-04 18:25 | 54.20824 | 12.47833 | 24547 ft | 386 kts | 345° |
| 2026-05-04 18:25 | 54.23471 | 12.47253 | 24216 ft | 380 kts | 345° |
| 2026-05-04 18:26 | 54.26062 | 12.46689 | 23985 ft | 371 kts | 345° |
| 2026-05-04 18:26 | 54.28594 | 12.46141 | 23754 ft | 362 kts | 345° |
| 2026-05-04 18:26 | 54.31067 | 12.45604 | 23513 ft | 355 kts | 344° |
| 2026-05-04 18:26 | 54.33500 | 12.45070 | 23231 ft | 351 kts | 344° |
| 2026-05-04 18:27 | 54.35919 | 12.44534 | 22969 ft | 349 kts | 344° |
| 2026-05-04 18:27 | 54.38322 | 12.43995 | 22699 ft | 347 kts | 344° |
| 2026-05-04 18:27 | 54.40715 | 12.43456 | 22438 ft | 346 kts | 344° |
| 2026-05-04 18:27 | 54.43089 | 12.42926 | 22169 ft | 344 kts | 345° |
| 2026-05-04 18:28 | 54.45458 | 12.42398 | 21913 ft | 342 kts | 345° |
| 2026-05-04 18:28 | 54.47824 | 12.41870 | 21645 ft | 341 kts | 345° |
| 2026-05-04 18:28 | 54.50174 | 12.41349 | 21387 ft | 340 kts | 345° |
| 2026-05-04 18:28 | 54.52574 | 12.41378 | 21125 ft | 351 kts | 2° |
| 2026-05-04 18:29 | 54.54989 | 12.42127 | 20873 ft | 351 kts | 4° |
| 2026-05-04 18:29 | 54.57386 | 12.42910 | 20618 ft | 350 kts | 4° |
| 2026-05-04 18:29 | 54.59779 | 12.43705 | 20356 ft | 349 kts | 4° |
| 2026-05-04 18:29 | 54.62153 | 12.44499 | 20123 ft | 347 kts | 5° |
| 2026-05-04 18:30 | 54.66880 | 12.46078 | 19630 ft | 344 kts | 5° |
| 2026-05-04 18:30 | 54.69227 | 12.46857 | 19386 ft | 343 kts | 5° |
| 2026-05-04 18:30 | 54.71561 | 12.47632 | 19148 ft | 341 kts | 5° |
| 2026-05-04 18:31 | 54.73889 | 12.48404 | 18908 ft | 340 kts | 5° |
| 2026-05-04 18:31 | 54.76205 | 12.49171 | 18668 ft | 338 kts | 5° |
| 2026-05-04 18:31 | 54.78513 | 12.49934 | 18436 ft | 337 kts | 6° |
| 2026-05-04 18:31 | 54.80816 | 12.50694 | 18191 ft | 336 kts | 6° |
| 2026-05-04 18:32 | 54.83106 | 12.51452 | 17921 ft | 334 kts | 6° |
| 2026-05-04 18:32 | 54.85385 | 12.52213 | 17656 ft | 333 kts | 6° |
| 2026-05-04 18:32 | 54.87627 | 12.52967 | 17392 ft | 332 kts | 6° |
| 2026-05-04 18:32 | 54.89889 | 12.53725 | 17130 ft | 330 kts | 6° |
| 2026-05-04 18:33 | 54.92144 | 12.54480 | 16870 ft | 329 kts | 6° |
| 2026-05-04 18:33 | 54.94376 | 12.55229 | 16604 ft | 324 kts | 6° |
| 2026-05-04 18:33 | 54.96580 | 12.55966 | 16228 ft | 321 kts | 5° |
| 2026-05-04 18:33 | 54.98767 | 12.56695 | 15842 ft | 319 kts | 5° |
| 2026-05-04 18:34 | 55.00937 | 12.57420 | 15458 ft | 317 kts | 5° |
| 2026-05-04 18:34 | 55.03103 | 12.58146 | 15074 ft | 316 kts | 5° |
| 2026-05-04 18:34 | 55.05252 | 12.58868 | 14693 ft | 314 kts | 5° |
| 2026-05-04 18:34 | 55.07397 | 12.59592 | 14318 ft | 313 kts | 5° |
| 2026-05-04 18:35 | 55.09535 | 12.60316 | 13938 ft | 312 kts | 5° |
| 2026-05-04 18:35 | 55.11664 | 12.61037 | 13536 ft | 311 kts | 5° |
| 2026-05-04 18:35 | 55.13782 | 12.61757 | 13139 ft | 309 kts | 5° |
| 2026-05-04 18:35 | 55.15885 | 12.62471 | 12768 ft | 307 kts | 6° |
| 2026-05-04 18:36 | 55.17976 | 12.63178 | 12392 ft | 305 kts | 6° |
| 2026-05-04 18:36 | 55.20048 | 12.63882 | 12019 ft | 303 kts | 6° |
| 2026-05-04 18:36 | 55.22112 | 12.64584 | 11646 ft | 301 kts | 6° |
| 2026-05-04 18:36 | 55.24109 | 12.65462 | 11328 ft | 300 kts | 13° |
| 2026-05-04 18:37 | 55.26093 | 12.66593 | 10969 ft | 299 kts | 13° |
| 2026-05-04 18:37 | 55.28064 | 12.67712 | 10602 ft | 297 kts | 13° |
| 2026-05-04 18:37 | 55.30028 | 12.68831 | 10232 ft | 297 kts | 13° |
| 2026-05-04 18:37 | 55.31995 | 12.69952 | 9862 ft | 296 kts | 13° |
| 2026-05-04 18:38 | 55.33246 | 12.70663 | 9613 ft | 295 kts | 13° |
| 2026-05-04 18:38 | 55.35194 | 12.71770 | 9230 ft | 293 kts | 13° |
| 2026-05-04 18:38 | 55.37129 | 12.72873 | 8868 ft | 291 kts | 14° |
| 2026-05-04 18:38 | 55.39047 | 12.73973 | 8595 ft | 289 kts | 14° |
| 2026-05-04 18:39 | 55.40956 | 12.75067 | 8312 ft | 288 kts | 14° |
| 2026-05-04 18:39 | 55.42860 | 12.76159 | 8026 ft | 287 kts | 14° |
| 2026-05-04 18:39 | 55.44752 | 12.77245 | 7741 ft | 285 kts | 14° |
| 2026-05-04 18:39 | 55.46609 | 12.78315 | 7465 ft | 284 kts | 14° |
| 2026-05-04 18:40 | 55.48505 | 12.79408 | 7176 ft | 283 kts | 14° |
| 2026-05-04 18:40 | 55.50369 | 12.80484 | 6899 ft | 281 kts | 14° |
| 2026-05-04 18:40 | 55.52225 | 12.81552 | 6618 ft | 280 kts | 14° |
| 2026-05-04 18:40 | 55.54072 | 12.82610 | 6362 ft | 277 kts | 14° |
| 2026-05-04 18:41 | 55.55864 | 12.83650 | 6231 ft | 267 kts | 15° |
| 2026-05-04 18:41 | 55.57576 | 12.84790 | 6098 ft | 259 kts | 18° |
| 2026-05-04 18:41 | 55.59190 | 12.86056 | 5863 ft | 256 kts | 20° |
| 2026-05-04 18:41 | 55.60795 | 12.87356 | 5606 ft | 252 kts | 20° |
| 2026-05-04 18:42 | 55.62385 | 12.88652 | 5311 ft | 251 kts | 20° |
| 2026-05-04 18:42 | 55.63969 | 12.89940 | 4977 ft | 251 kts | 20° |
| 2026-05-04 18:42 | 55.65555 | 12.91205 | 4646 ft | 249 kts | 17° |
| 2026-05-04 18:42 | 55.67231 | 12.91719 | 4274 ft | 243 kts | 358° |
| 2026-05-04 18:43 | 55.68880 | 12.91742 | 4173 ft | 231 kts | 356° |
| 2026-05-04 18:43 | 55.70444 | 12.91630 | 4002 ft | 220 kts | 345° |
| 2026-05-04 18:43 | 55.71762 | 12.90378 | 3610 ft | 216 kts | 311° |
| 2026-05-04 18:43 | 55.72471 | 12.88059 | 3252 ft | 216 kts | 288° |
| 2026-05-04 18:44 | 55.72851 | 12.85481 | 2892 ft | 217 kts | 275° |
| 2026-05-04 18:44 | 55.72844 | 12.84577 | 2824 ft | 215 kts | 264° |
| 2026-05-04 18:44 | 55.71716 | 12.81036 | 2461 ft | 193 kts | 223° |
| 2026-05-04 18:44 | 55.70730 | 12.79511 | 2229 ft | 182 kts | 224° |
| 2026-05-04 18:45 | 55.69814 | 12.78080 | 1957 ft | 169 kts | 225° |
| 2026-05-04 18:45 | 55.68968 | 12.76759 | 1763 ft | 162 kts | 225° |
| 2026-05-04 18:45 | 55.68135 | 12.75457 | 1537 ft | 158 kts | 225° |
| 2026-05-04 18:45 | 55.67369 | 12.74267 | 1324 ft | 135 kts | 225° |
| 2026-05-04 18:46 | 55.66694 | 12.73217 | 1138 ft | 124 kts | 225° |
| 2026-05-04 18:46 | 55.66046 | 12.72214 | 987 ft | 124 kts | 224° |
| 2026-05-04 18:46 | 55.65391 | 12.71195 | 802 ft | 125 kts | 224° |
| 2026-05-04 18:46 | 55.64743 | 12.70182 | 635 ft | 125 kts | 224° |
| 2026-05-04 18:47 | 55.64085 | 12.69168 | 467 ft | 126 kts | 224° |
| 2026-05-04 18:47 | 55.63429 | 12.68140 | 292 ft | 124 kts | 225° |
| 2026-05-04 18:47 | 55.62788 | 12.67139 | 134 ft | 122 kts | 225° |
| 2026-05-04 18:47 | 55.62168 | 12.66174 | 24 ft | 110 kts | 221° |
| 2026-05-04 18:48 | 55.61701 | 12.65453 | 24 ft | 65 kts | 221° |
| 2026-05-04 18:48 | 55.61434 | 12.65040 | 24 ft | 37 kts | 222° |
| 2026-05-04 18:48 | 55.61332 | 12.64865 | 25 ft | 32 kts | 230° |
| 2026-05-04 18:48 | 55.61261 | 12.64640 | 24 ft | 17 kts | 244° |
| 2026-05-04 18:49 | 55.61221 | 12.64425 | 25 ft | 17 kts | 252° |
| 2026-05-04 18:49 | 55.61188 | 12.64241 | 25 ft | 13 kts | 261° |
| 2026-05-04 18:49 | 55.61237 | 12.64109 | 24 ft | 13 kts | 342° |
| 2026-05-04 18:49 | 55.61317 | 12.64152 | 25 ft | 14 kts | 32° |
| 2026-05-04 18:50 | 55.61408 | 12.64256 | 24 ft | 17 kts | 32° |
| 2026-05-04 18:50 | 55.61521 | 12.64386 | 24 ft | 21 kts | 33° |
| 2026-05-04 18:50 | 55.61648 | 12.64534 | 24 ft | 20 kts | 32° |
| 2026-05-04 18:50 | 55.61725 | 12.64621 | 25 ft | 20 kts | 33° |
| 2026-05-04 18:51 | 55.61834 | 12.64746 | 24 ft | 18 kts | 33° |
| 2026-05-04 18:51 | 55.61973 | 12.64905 | 24 ft | 16 kts | 33° |
| 2026-05-04 18:51 | 55.62038 | 12.64980 | 25 ft | 17 kts | 34° |
| 2026-05-04 18:51 | 55.62106 | 12.65060 | 24 ft | 8 kts | 32° |
| 2026-05-04 18:52 | 55.62115 | 12.65070 | 27 ft | 0 kts | 33° |
| 2026-05-04 18:52 | 55.62117 | 12.65073 | 26 ft | 2 kts | 33° |
| 2026-05-04 18:52 | 55.62144 | 12.65104 | 27 ft | 8 kts | 33° |
| 2026-05-04 18:52 | 55.62208 | 12.65175 | 26 ft | 14 kts | 28° |
| 2026-05-04 18:53 | 55.62285 | 12.65054 | 24 ft | 20 kts | 303° |
| 2026-05-04 18:53 | 55.62348 | 12.64883 | 27 ft | 16 kts | 303° |
| 2026-05-04 18:53 | 55.62409 | 12.64719 | 26 ft | 12 kts | 302° |
| 2026-05-04 18:53 | 55.62437 | 12.64654 | 24 ft | 3 kts | 326° |
| 2026-05-04 18:54 | 55.62471 | 12.64651 | 24 ft | 7 kts | 14° |
| 2026-05-04 18:54 | 55.62537 | 12.64653 | 24 ft | 12 kts | 360° |